KIAH

George Bush Intercontinental / Houston Airport

Houston, Texas, USA
METAR KIAH 212153Z 15007KT 10SM SCT026 SCT160 OVC250 31/25 A2988 RMK AO2 SLP116 T03110250
Observed Flight Rules
Jun-21 @ 21:53 UTC (13 minutes ago) Visual Flight Rules
Wind Visibility Clouds
150° at 7 knots 10 miles
  • Scattered at 2,600' AGL
  • Scattered at 16,000' AGL
  • Overcast at 25,000' AGL
Temperatures Readings
Current 31°C / 88°F
Dewpoint 25°C / 77°F
Humidity 70%
Altimeter 29.88" Hg
Pressure 1011.6 hPa
Elevation 36
METAR KIAH 212153Z 15007KT 10SM SCT026 SCT160 OVC250 31/25 A2988 RMK AO2 SLP116 T03110250
Observed Flight Rules
Jun-21 @ 21:53 UTC
(13 minutes ago)
VFR
Wind Visibility
150° at 7 knots 10 miles
Clouds
  • Scattered at 2,600' AGL
  • Scattered at 16,000' AGL
  • Overcast at 25,000' AGL
Temperature Dewpoint
31°C / 88°F 25°C / 77°F
Humidity Altimeter Pressure
70% 29.88" Hg 1011.6 hPa